INFORMACIÓN METAR y TAF
METAR FOR LETL
ADDS - METARS form results

(0954 UTC 25 August 2019)
Data provider http://aviationweather.gov/metar/data/
 
METAR text: LETL 250930Z AUTO 14001KT 9999 NCD 23/07 Q1022
Conditions at: LETL (TERUEL , ES) observed 0930 UTC 25 August 2019
Temperature: 23.0°C (73°F)
Dewpoint: 7.0°C (45°F) [RH = 36%]
Pressure (altimeter): 30.18 inches Hg (1022.0 mb)
Winds: from the SE (140 degrees) at 1 MPH (1 knots; 0.5 m/s)
Visibility: 6 or more miles (10+ km)
Ceiling: at least 12,000 feet AGL
Clouds: sky clear below 12,000 feet AGL
Weather: no significant weather observed at this time

METAR text: LETL 250900Z AUTO 14001KT 9999 NCD 21/10 Q1023
Conditions at: LETL (TERUEL , ES) observed 0900 UTC 25 August 2019
Temperature: 21.0°C (70°F)
Dewpoint: 10.0°C (50°F) [RH = 49%]
Pressure (altimeter): 30.21 inches Hg (1023.0 mb)
Winds: from the SE (140 degrees) at 1 MPH (1 knots; 0.5 m/s)
Visibility: 6 or more miles (10+ km)
Ceiling: at least 12,000 feet AGL
Clouds: sky clear below 12,000 feet AGL
Weather: no significant weather observed at this time

 MAPA DE AEROPUERTO

 INFORMACIÓN DE PISTA

 FRECUANCIAS DEL AEROPUERTO

 RADIO AYUDAS DEL AEROPUERTO



Powered by Virtual Airlines Manager [v2.6.2]